createdAt,value
2017-09-23T00:02:35.276Z,62.47
2017-09-23T00:17:35.261Z,63.00
2017-09-23T00:32:35.236Z,62.99
2017-09-23T00:47:34.611Z,62.65
2017-09-23T01:02:34.582Z,62.63
2017-09-23T01:17:34.604Z,62.46
2017-09-23T01:32:34.653Z,62.32
2017-09-23T01:47:35.053Z,62.54
2017-09-23T02:02:34.946Z,62.13
2017-09-23T02:17:34.924Z,61.72
2017-09-23T02:32:34.915Z,61.49
2017-09-23T02:47:35.452Z,61.08
2017-09-23T03:02:35.540Z,61.19
2017-09-23T03:17:35.291Z,61.25
2017-09-23T03:32:35.347Z,61.02
2017-09-23T03:47:34.719Z,61.19
2017-09-23T04:02:34.617Z,61.14
2017-09-23T04:17:36.612Z,60.89
2017-09-23T04:32:37.277Z,60.52
2017-09-23T04:47:35.018Z,60.34
2017-09-23T05:02:35.015Z,60.08
2017-09-23T05:17:34.862Z,60.27
2017-09-23T05:32:34.904Z,59.74
2017-09-23T05:47:35.305Z,59.16
2017-09-23T06:02:35.422Z,59.10
2017-09-23T06:17:35.260Z,58.37
2017-09-23T06:32:35.150Z,57.35
2017-09-23T06:47:34.671Z,56.66
2017-09-23T07:02:34.693Z,55.59
2017-09-23T07:17:34.564Z,55.10
2017-09-23T07:32:36.517Z,53.66
2017-09-23T07:47:34.915Z,52.30
2017-09-23T08:02:34.930Z,51.52
2017-09-23T08:17:34.921Z,50.16
2017-09-23T08:32:34.874Z,49.96
2017-09-23T08:47:35.264Z,49.99
2017-09-23T09:02:35.752Z,48.73
2017-09-23T09:17:35.216Z,47.81
2017-09-23T09:32:35.220Z,46.21
2017-09-23T09:47:34.621Z,44.89
2017-09-23T10:02:34.644Z,44.66
2017-09-23T10:17:34.579Z,42.92
2017-09-23T10:32:34.527Z,41.36
2017-09-23T10:47:35.049Z,40.96
2017-09-23T11:02:34.948Z,40.78
2017-09-23T11:17:34.847Z,41.44
2017-09-23T11:32:34.824Z,38.83
2017-09-23T11:47:35.238Z,37.80
2017-09-23T12:02:35.210Z,38.77
2017-09-23T12:17:35.143Z,37.81
2017-09-23T12:32:35.141Z,36.78
2017-09-23T12:47:36.549Z,38.02
2017-09-23T13:02:34.511Z,38.91
2017-09-23T13:17:34.494Z,38.50
2017-09-23T13:32:34.507Z,37.82
2017-09-23T13:47:34.797Z,38.60
2017-09-23T14:02:34.852Z,38.91
2017-09-23T14:17:34.838Z,39.80
2017-09-23T14:32:34.758Z,40.92
2017-09-23T14:47:35.158Z,41.50
2017-09-23T15:02:35.096Z,41.96
2017-09-23T15:17:35.130Z,42.49
2017-09-23T15:32:35.078Z,42.50
2017-09-23T15:47:34.465Z,42.91
2017-09-23T16:02:34.426Z,43.39
2017-09-23T16:17:34.458Z,44.19
2017-09-23T16:32:34.456Z,45.10
2017-09-23T16:47:34.809Z,46.39
2017-09-23T17:02:34.741Z,47.37
2017-09-23T17:17:34.729Z,48.17
2017-09-23T17:32:34.239Z,49.70
2017-09-23T17:47:35.101Z,50.53
2017-09-23T18:02:35.088Z,51.19
2017-09-23T18:17:35.139Z,52.15
2017-09-23T18:32:35.028Z,53.11
2017-09-23T18:47:34.420Z,53.68
2017-09-23T19:02:34.456Z,54.38
2017-09-23T19:17:34.452Z,55.06
2017-09-23T19:32:34.363Z,55.26
2017-09-23T19:47:34.732Z,55.50
2017-09-23T20:02:34.738Z,55.87
2017-09-23T20:17:34.716Z,56.59
2017-09-23T20:32:34.655Z,57.39
2017-09-23T20:47:35.082Z,58.00
2017-09-23T21:02:36.047Z,58.06
2017-09-23T21:17:34.977Z,58.61
2017-09-23T21:32:34.871Z,58.75
2017-09-23T21:47:36.371Z,59.07
2017-09-23T22:02:34.423Z,59.61
2017-09-23T22:17:34.279Z,60.41
2017-09-23T22:32:34.309Z,60.99
2017-09-23T22:47:34.641Z,61.48
2017-09-23T23:02:34.615Z,61.60
2017-09-23T23:17:36.583Z,61.96
2017-09-23T23:32:34.526Z,62.36
2017-09-23T23:47:34.922Z,62.68
